createdAt,value
2023-02-04T00:01:36.261Z,11.23
2023-02-04T00:03:38.996Z,11.55
2023-02-04T00:05:41.765Z,12.52
2023-02-04T00:07:44.605Z,12.25
2023-02-04T00:09:47.488Z,11.18
2023-02-04T00:11:50.159Z,11.88
2023-02-04T00:13:52.811Z,12.77
2023-02-04T00:15:55.692Z,11.20
2023-02-04T00:17:58.553Z,10.30
2023-02-04T00:20:01.328Z,12.18
2023-02-04T00:22:05.148Z,10.13
2023-02-04T00:24:07.895Z,10.90
2023-02-04T00:26:10.705Z,11.00
2023-02-04T00:28:13.414Z,10.80
2023-02-04T00:30:16.179Z,11.25
2023-02-04T00:32:18.940Z,11.57
2023-02-04T00:34:21.930Z,10.80
2023-02-04T00:36:24.586Z,12.23
2023-02-04T00:38:27.358Z,12.88
2023-02-04T00:40:30.340Z,12.05
2023-02-04T00:42:33.195Z,10.90
2023-02-04T00:44:36.862Z,11.77
2023-02-04T00:46:39.642Z,11.13
2023-02-04T00:48:42.313Z,14.85
2023-02-04T00:50:45.064Z,10.23
2023-02-04T00:52:47.780Z,11.03
2023-02-04T00:54:50.434Z,10.52
2023-02-04T00:56:53.394Z,11.73
2023-02-04T00:58:55.994Z,12.30
2023-02-04T01:00:58.729Z,10.87
2023-02-04T01:03:01.542Z,13.53
2023-02-04T01:05:04.254Z,12.87
2023-02-04T01:07:06.948Z,10.38
2023-02-04T01:09:10.471Z,12.30
2023-02-04T01:11:13.215Z,11.83
2023-02-04T01:13:15.879Z,11.17
2023-02-04T01:15:18.870Z,11.52
2023-02-04T01:17:21.668Z,10.23
2023-02-04T01:19:24.296Z,10.50
2023-02-04T01:21:27.023Z,11.40
2023-02-04T01:23:29.688Z,10.23
2023-02-04T01:25:32.422Z,10.95
2023-02-04T01:27:35.074Z,11.57
2023-02-04T01:29:37.694Z,12.05
2023-02-04T01:31:40.397Z,11.00
2023-02-04T01:33:43.375Z,11.23
2023-02-04T01:35:46.045Z,11.77
2023-02-04T01:37:48.758Z,11.45
2023-02-04T01:39:51.567Z,11.35
2023-02-04T01:41:54.359Z,14.95
2023-02-04T01:43:57.049Z,10.80
2023-02-04T01:46:00.270Z,12.07
2023-02-04T01:48:07.263Z,10.63
2023-02-04T01:50:13.734Z,12.70
2023-02-04T01:52:17.822Z,11.82
2023-02-04T01:54:22.288Z,21.77
2023-02-04T01:56:27.372Z,11.45
2023-02-04T01:58:33.828Z,11.10
2023-02-04T02:00:36.768Z,10.93
2023-02-04T02:02:49.076Z,16.88
2023-02-04T02:04:51.743Z,10.93
2023-02-04T02:06:58.910Z,17.43
2023-02-04T02:09:02.196Z,11.93
2023-02-04T02:11:05.721Z,11.00
2023-02-04T02:13:11.699Z,12.37
2023-02-04T02:15:15.869Z,11.23
2023-02-04T02:17:18.560Z,12.77
2023-02-04T02:19:31.365Z,23.23
2023-02-04T02:21:53.682Z,12.30
2023-02-04T02:26:03.915Z,11.40
2023-02-04T02:28:12.766Z,10.83
2023-02-04T02:30:17.932Z,11.80
2023-02-04T02:32:21.221Z,12.73
2023-02-04T02:34:25.501Z,13.90
2023-02-04T02:36:28.230Z,12.03
2023-02-04T02:38:30.996Z,14.27
2023-02-04T02:40:33.873Z,12.43
2023-02-04T02:42:37.401Z,15.77
2023-02-04T02:44:40.094Z,13.53
2023-02-04T02:46:42.795Z,14.73
2023-02-04T02:48:45.514Z,14.17
2023-02-04T02:50:48.952Z,14.87
2023-02-04T02:52:52.784Z,16.10
2023-02-04T02:54:55.432Z,14.33
2023-02-04T02:56:59.516Z,12.53
2023-02-04T02:59:16.156Z,14.67
2023-02-04T03:01:18.966Z,14.90
2023-02-04T03:03:26.205Z,15.20
2023-02-04T03:05:33.259Z,13.70
2023-02-04T03:07:36.485Z,13.97
2023-02-04T03:09:39.297Z,13.40
2023-02-04T03:11:42.073Z,15.03
2023-02-04T03:13:45.181Z,14.40
2023-02-04T03:15:48.579Z,14.07
2023-02-04T03:17:56.585Z,17.00
2023-02-04T03:19:59.558Z,14.47
2023-02-04T03:22:04.497Z,14.10
2023-02-04T03:24:07.708Z,14.02
2023-02-04T03:26:10.417Z,15.33
2023-02-04T03:28:13.108Z,17.77
2023-02-04T03:30:16.046Z,16.10
2023-02-04T03:32:18.718Z,15.77
2023-02-04T03:34:22.969Z,15.87
2023-02-04T03:36:25.722Z,17.83
2023-02-04T03:38:28.461Z,15.13
2023-02-04T03:40:31.442Z,14.83
2023-02-04T03:42:35.099Z,16.77
2023-02-04T03:44:37.867Z,15.30
2023-02-04T03:46:40.597Z,16.10
2023-02-04T03:48:43.371Z,16.67
2023-02-04T03:50:46.151Z,20.90
2023-02-04T03:52:50.313Z,15.30
2023-02-04T03:54:52.986Z,15.80
2023-02-04T03:56:55.686Z,15.05
2023-02-04T03:58:58.296Z,13.40
2023-02-04T04:01:01.165Z,14.97
2023-02-04T04:03:03.949Z,13.15
2023-02-04T04:05:07.870Z,14.00
2023-02-04T04:07:10.661Z,14.10
2023-02-04T04:09:13.376Z,15.40
2023-02-04T04:11:16.219Z,13.30
2023-02-04T04:13:18.921Z,14.07
2023-02-04T04:15:21.569Z,13.03
2023-02-04T04:17:24.270Z,14.27
2023-02-04T04:19:26.979Z,13.20
2023-02-04T04:21:29.711Z,13.27
2023-02-04T04:23:32.474Z,14.52
2023-02-04T04:25:35.165Z,15.10
2023-02-04T04:27:37.868Z,14.40
2023-02-04T04:29:40.577Z,12.63
2023-02-04T04:31:45.170Z,13.13
2023-02-04T04:33:47.941Z,12.27
2023-02-04T04:35:50.686Z,14.27
2023-02-04T04:37:53.447Z,12.17
2023-02-04T04:39:56.113Z,12.43
2023-02-04T04:41:58.851Z,12.43
2023-02-04T04:44:01.728Z,13.90
2023-02-04T04:46:04.506Z,13.20
2023-02-04T04:48:07.168Z,12.47
2023-02-04T04:50:10.383Z,12.57
2023-02-04T04:52:13.148Z,16.50
2023-02-04T04:54:15.864Z,10.70
2023-02-04T04:56:19.545Z,12.02
2023-02-04T04:58:22.237Z,12.43
2023-02-04T05:00:25.021Z,11.83
2023-02-04T05:02:27.899Z,12.70
2023-02-04T05:04:30.699Z,11.23
2023-02-04T05:06:33.473Z,11.37
2023-02-04T05:08:36.187Z,12.52
2023-02-04T05:10:40.067Z,11.77
2023-02-04T05:12:42.795Z,25.47
2023-02-04T05:14:45.550Z,12.50
2023-02-04T05:16:48.347Z,12.02
2023-02-04T05:18:51.008Z,11.03
2023-02-04T05:20:53.687Z,10.90
2023-02-04T05:22:56.626Z,11.00
2023-02-04T05:24:59.334Z,11.00
2023-02-04T05:27:02.114Z,11.17
2023-02-04T05:29:05.066Z,10.50
2023-02-04T05:31:08.043Z,10.30
2023-02-04T05:33:10.794Z,12.60
2023-02-04T05:35:13.479Z,11.90
2023-02-04T05:37:17.729Z,11.80
2023-02-04T05:39:20.535Z,8.90
2023-02-04T05:41:23.371Z,10.45
2023-02-04T05:43:26.087Z,11.05
2023-02-04T05:45:28.792Z,9.47
2023-02-04T05:47:31.478Z,9.32
2023-02-04T05:49:34.307Z,10.10
2023-02-04T05:51:37.043Z,10.68
2023-02-04T05:53:39.690Z,10.52
2023-02-04T05:55:42.785Z,10.88
2023-02-04T05:57:45.460Z,11.48
2023-02-04T05:59:48.120Z,11.13
2023-02-04T06:01:50.773Z,11.13
2023-02-04T06:03:53.676Z,9.30
2023-02-04T06:05:56.935Z,9.98
2023-02-04T06:08:00.151Z,10.35
2023-02-04T06:10:03.700Z,10.07
2023-02-04T06:12:06.674Z,9.25
2023-02-04T06:14:10.926Z,12.45
2023-02-04T06:16:14.967Z,11.25
2023-02-04T06:18:17.775Z,9.25
2023-02-04T06:20:20.440Z,10.05
2023-02-04T06:22:24.868Z,9.13
2023-02-04T06:24:27.493Z,10.27
2023-02-04T06:26:30.199Z,9.48
2023-02-04T06:28:32.943Z,10.65
2023-02-04T06:30:37.624Z,10.52
2023-02-04T06:32:40.631Z,11.20
2023-02-04T06:34:43.304Z,9.88
2023-02-04T06:36:45.886Z,9.65
2023-02-04T06:38:48.598Z,10.10
2023-02-04T06:40:53.875Z,11.60
2023-02-04T06:42:56.494Z,9.77
2023-02-04T06:44:59.116Z,9.38
2023-02-04T06:47:01.810Z,11.75
2023-02-04T06:49:04.401Z,11.77
2023-02-04T06:51:07.019Z,10.00
2023-02-04T06:53:09.757Z,10.23
2023-02-04T06:55:13.174Z,10.93
2023-02-04T06:57:15.751Z,9.65
2023-02-04T06:59:18.901Z,9.82
2023-02-04T07:01:21.669Z,11.68
2023-02-04T07:03:24.299Z,11.88
2023-02-04T07:05:27.008Z,10.23
2023-02-04T07:07:30.037Z,10.25
2023-02-04T07:09:32.770Z,9.77
2023-02-04T07:11:37.005Z,10.23
2023-02-04T07:13:39.695Z,11.45
2023-02-04T07:15:42.389Z,9.63
2023-02-04T07:17:45.080Z,9.13
2023-02-04T07:19:47.747Z,10.18
2023-02-04T07:21:54.222Z,11.73
2023-02-04T07:23:56.840Z,11.68
2023-02-04T07:25:59.726Z,10.88
2023-02-04T07:28:03.976Z,10.50
2023-02-04T07:30:07.315Z,10.63
2023-02-04T07:32:09.993Z,11.82
2023-02-04T07:34:14.296Z,11.23
2023-02-04T07:36:17.014Z,11.27
2023-02-04T07:38:19.651Z,10.43
2023-02-04T07:40:22.358Z,11.98
2023-02-04T07:42:25.015Z,11.38
2023-02-04T07:44:27.692Z,11.63
2023-02-04T07:46:30.631Z,11.10
2023-02-04T07:48:33.318Z,10.63
2023-02-04T07:50:36.061Z,11.05
2023-02-04T07:52:38.968Z,10.52
2023-02-04T07:54:41.781Z,9.82
2023-02-04T07:56:51.990Z,10.68
2023-02-04T07:58:54.738Z,9.52
2023-02-04T08:00:57.400Z,11.27
2023-02-04T08:03:00.094Z,10.48
2023-02-04T08:05:03.196Z,10.30
2023-02-04T08:07:05.988Z,9.57
2023-02-04T08:09:08.761Z,10.63
2023-02-04T08:11:11.499Z,8.90
2023-02-04T08:13:14.352Z,9.57
2023-02-04T08:15:17.152Z,9.77
2023-02-04T08:17:19.738Z,8.32
2023-02-04T08:19:22.732Z,10.60
2023-02-04T08:21:25.312Z,9.48
2023-02-04T08:23:28.024Z,9.73
2023-02-04T08:25:30.591Z,8.85
2023-02-04T08:27:33.209Z,10.38
2023-02-04T08:29:35.880Z,9.77
2023-02-04T08:31:39.297Z,10.70
2023-02-04T08:33:42.028Z,8.75
2023-02-04T08:35:44.733Z,9.93
2023-02-04T08:37:47.419Z,8.98
2023-02-04T08:39:50.056Z,9.95
2023-02-04T08:41:52.744Z,8.85
2023-02-04T08:43:55.534Z,10.30
2023-02-04T08:45:58.112Z,7.82
2023-02-04T08:48:00.703Z,9.70
2023-02-04T08:50:03.738Z,9.68
2023-02-04T08:52:08.100Z,10.10
2023-02-04T08:54:10.723Z,9.18
2023-02-04T08:56:16.746Z,9.75
2023-02-04T08:58:19.468Z,8.52
2023-02-04T09:00:23.422Z,9.60
2023-02-04T09:02:26.068Z,9.80
2023-02-04T09:04:29.589Z,10.13
2023-02-04T09:06:32.198Z,10.13
2023-02-04T09:08:34.844Z,9.15
2023-02-04T09:10:37.499Z,8.65
2023-02-04T09:12:40.116Z,10.07
2023-02-04T09:14:42.712Z,9.88
2023-02-04T09:16:45.515Z,10.40
2023-02-04T09:18:48.183Z,10.07
2023-02-04T09:20:51.186Z,9.52
2023-02-04T09:22:53.961Z,9.00
2023-02-04T09:24:56.637Z,8.50
2023-02-04T09:26:59.319Z,9.52
2023-02-04T09:29:01.891Z,9.07
2023-02-04T09:31:06.586Z,8.48
2023-02-04T09:33:11.081Z,9.27
2023-02-04T09:35:13.832Z,8.80
2023-02-04T09:37:16.442Z,10.50
2023-02-04T09:39:19.016Z,8.85
2023-02-04T09:41:21.751Z,9.02
2023-02-04T09:43:30.751Z,9.45
2023-02-04T09:45:35.410Z,9.75
2023-02-04T09:47:38.397Z,9.60
2023-02-04T09:49:42.245Z,9.63
2023-02-04T09:51:46.879Z,8.40
2023-02-04T09:53:50.692Z,8.48
2023-02-04T09:55:53.382Z,8.32
2023-02-04T09:57:56.045Z,8.15
2023-02-04T09:59:59.128Z,8.88
2023-02-04T10:02:03.423Z,8.73
2023-02-04T10:04:08.950Z,8.90
2023-02-04T10:06:11.603Z,9.63
2023-02-04T10:08:17.613Z,8.93
2023-02-04T10:10:25.366Z,9.02
2023-02-04T10:12:28.423Z,8.50
2023-02-04T10:14:31.035Z,8.88
2023-02-04T10:16:35.395Z,9.90
2023-02-04T10:18:38.685Z,8.55
2023-02-04T10:20:41.297Z,9.25
2023-02-04T10:22:44.409Z,9.68
2023-02-04T10:24:47.260Z,8.82
2023-02-04T10:26:49.932Z,10.82
2023-02-04T10:29:09.831Z,11.15
2023-02-04T10:31:33.872Z,9.38
2023-02-04T10:33:38.719Z,9.13
2023-02-04T10:35:49.765Z,9.05
2023-02-04T10:38:06.958Z,8.25
2023-02-04T10:40:27.890Z,8.95
2023-02-04T10:42:32.098Z,10.23
2023-02-04T10:44:36.203Z,9.50
2023-02-04T10:46:39.044Z,8.80
2023-02-04T10:48:42.632Z,9.70
2023-02-04T10:50:47.603Z,9.70
2023-02-04T10:53:18.224Z,9.15
2023-02-04T10:55:24.239Z,9.30
2023-02-04T10:57:30.201Z,10.23
2023-02-04T10:59:33.500Z,10.48
2023-02-04T11:01:36.112Z,9.43
2023-02-04T11:03:40.318Z,9.85
2023-02-04T11:05:42.953Z,10.05
2023-02-04T11:07:47.269Z,10.70
2023-02-04T11:09:50.217Z,9.68
2023-02-04T11:11:53.063Z,10.00
2023-02-04T11:13:55.989Z,10.23
2023-02-04T11:16:30.720Z,9.93
2023-02-04T11:19:03.786Z,10.77
2023-02-04T11:21:34.409Z,9.57
2023-02-04T11:23:37.560Z,10.35
2023-02-04T11:25:40.660Z,9.98
2023-02-04T11:27:44.028Z,10.20
2023-02-04T11:29:48.088Z,9.52
2023-02-04T11:32:00.556Z,9.90
2023-02-04T11:34:25.975Z,9.27
2023-02-04T11:36:29.684Z,10.15
2023-02-04T11:38:33.449Z,8.82
2023-02-04T11:40:38.923Z,10.07
2023-02-04T11:42:43.045Z,10.25
2023-02-04T11:44:59.494Z,9.50
2023-02-04T11:47:09.579Z,10.43
2023-02-04T11:49:20.237Z,9.35
2023-02-04T11:51:30.097Z,9.15
2023-02-04T11:53:34.558Z,9.10
2023-02-04T11:55:46.419Z,9.25
2023-02-04T11:57:55.226Z,10.13
2023-02-04T12:00:00.398Z,9.40
2023-02-04T12:02:15.139Z,8.98
2023-02-04T12:04:25.849Z,9.63
2023-02-04T12:06:34.059Z,10.00
2023-02-04T12:08:37.051Z,8.85
2023-02-04T12:10:40.106Z,10.25
2023-02-04T12:12:55.999Z,9.88
2023-02-04T12:15:03.471Z,9.80
2023-02-04T12:17:19.483Z,9.68
2023-02-04T12:19:22.793Z,10.80
2023-02-04T12:21:25.360Z,10.48
2023-02-04T12:23:30.173Z,11.95
2023-02-04T12:25:33.164Z,10.68
2023-02-04T12:27:35.940Z,8.90
2023-02-04T12:29:38.665Z,10.57
2023-02-04T12:31:41.322Z,9.98
2023-02-04T12:33:43.920Z,11.10
2023-02-04T12:35:46.819Z,11.20
2023-02-04T12:37:49.467Z,11.20
2023-02-04T12:39:52.180Z,10.95
2023-02-04T12:41:54.892Z,10.82
2023-02-04T12:43:57.521Z,10.52
2023-02-04T12:46:00.180Z,10.25
2023-02-04T12:48:02.921Z,11.05
2023-02-04T12:50:06.503Z,10.43
2023-02-04T12:52:09.097Z,10.10
2023-02-04T12:54:11.695Z,11.07
2023-02-04T12:56:15.321Z,11.43
2023-02-04T12:58:17.921Z,10.32
2023-02-04T13:00:22.366Z,13.15
2023-02-04T13:02:25.011Z,13.30
2023-02-04T13:04:27.737Z,11.65
2023-02-04T13:06:30.722Z,10.88
2023-02-04T13:08:33.350Z,11.57
2023-02-04T13:10:35.964Z,11.63
2023-02-04T13:12:38.691Z,12.15
2023-02-04T13:14:42.931Z,11.20
2023-02-04T13:16:45.535Z,9.88
2023-02-04T13:18:48.241Z,9.18
2023-02-04T13:20:50.867Z,10.95
2023-02-04T13:22:53.543Z,11.55
2023-02-04T13:24:56.115Z,10.20
2023-02-04T13:26:58.772Z,10.57
2023-02-04T13:29:01.364Z,10.52
2023-02-04T13:31:04.576Z,8.88
2023-02-04T13:33:07.253Z,9.68
2023-02-04T13:35:09.917Z,9.35
2023-02-04T13:37:12.689Z,10.35
2023-02-04T13:39:15.413Z,11.02
2023-02-04T13:41:18.035Z,9.60
2023-02-04T13:43:20.747Z,10.02
2023-02-04T13:45:23.532Z,10.30
2023-02-04T13:47:26.133Z,11.80
2023-02-04T13:49:28.751Z,10.45
2023-02-04T13:51:31.463Z,12.00
2023-02-04T13:53:34.117Z,11.60
2023-02-04T13:55:36.795Z,9.70
2023-02-04T13:57:39.430Z,10.40
2023-02-04T13:59:42.045Z,9.97
2023-02-04T14:01:44.678Z,11.03
2023-02-04T14:03:47.457Z,9.60
2023-02-04T14:05:50.089Z,10.27
2023-02-04T14:07:52.856Z,10.33
2023-02-04T14:10:14.021Z,11.23
2023-02-04T14:12:16.641Z,10.00
2023-02-04T14:14:19.318Z,10.80
2023-02-04T14:16:22.233Z,10.70
2023-02-04T14:18:24.876Z,9.87
2023-02-04T14:20:27.666Z,11.27
2023-02-04T14:22:30.274Z,9.07
2023-02-04T14:24:32.957Z,10.63
2023-02-04T14:26:35.490Z,8.63
2023-02-04T14:28:38.053Z,9.00
2023-02-04T14:30:40.697Z,9.57
2023-02-04T14:32:43.457Z,9.93
2023-02-04T14:34:46.036Z,9.37
2023-02-04T14:36:48.656Z,8.80
2023-02-04T14:38:51.565Z,10.43
2023-02-04T14:40:54.239Z,9.57
2023-02-04T14:42:56.842Z,10.50
2023-02-04T14:44:59.516Z,9.63
2023-02-04T14:47:02.358Z,9.47
2023-02-04T14:49:04.942Z,11.33
2023-02-04T14:51:07.544Z,10.77
2023-02-04T14:53:10.241Z,9.57
2023-02-04T14:55:14.576Z,10.50
2023-02-04T14:57:17.265Z,11.73
2023-02-04T14:59:19.829Z,11.10
2023-02-04T15:01:22.586Z,10.37
2023-02-04T15:03:25.221Z,8.13
2023-02-04T15:05:27.968Z,8.73
2023-02-04T15:07:30.558Z,8.03
2023-02-04T15:09:33.364Z,10.57
2023-02-04T15:11:36.004Z,9.30
2023-02-04T15:13:38.601Z,8.93
2023-02-04T15:15:41.349Z,8.47
2023-02-04T15:17:43.909Z,8.83
2023-02-04T15:19:46.570Z,9.73
2023-02-04T15:21:49.398Z,9.87
2023-02-04T15:23:52.020Z,9.60
2023-02-04T15:25:57.619Z,8.90
2023-02-04T15:28:00.285Z,9.60
2023-02-04T15:30:03.079Z,9.00
2023-02-04T15:32:09.930Z,8.70
2023-02-04T15:34:12.879Z,10.07
2023-02-04T15:36:15.675Z,9.53
2023-02-04T15:38:18.380Z,9.90
2023-02-04T15:40:21.117Z,10.23
2023-02-04T15:42:24.051Z,8.77
2023-02-04T15:44:27.306Z,9.13
2023-02-04T15:46:29.976Z,9.43
2023-02-04T15:48:32.707Z,9.60
2023-02-04T15:50:35.499Z,9.87
2023-02-04T15:52:38.155Z,8.77
2023-02-04T15:54:40.860Z,8.43
2023-02-04T15:56:44.504Z,9.87
2023-02-04T15:58:47.239Z,9.00
2023-02-04T16:00:49.887Z,9.57
2023-02-04T16:02:52.757Z,10.80
2023-02-04T16:04:55.432Z,10.23
2023-02-04T16:06:59.697Z,8.07
2023-02-04T16:09:02.884Z,9.27
2023-02-04T16:11:06.219Z,10.37
2023-02-04T16:13:08.972Z,9.80
2023-02-04T16:15:11.610Z,8.87
2023-02-04T16:17:14.260Z,7.60
2023-02-04T16:19:16.866Z,8.63
2023-02-04T16:21:19.525Z,8.47
2023-02-04T16:23:22.200Z,9.37
2023-02-04T16:25:25.503Z,9.37
2023-02-04T16:27:28.235Z,8.67
2023-02-04T16:29:31.020Z,9.80
2023-02-04T16:31:33.764Z,8.47
2023-02-04T16:33:36.656Z,8.53
2023-02-04T16:36:02.109Z,9.17
2023-02-04T16:38:04.771Z,8.37
2023-02-04T16:40:08.748Z,8.90
2023-02-04T16:42:12.621Z,9.50
2023-02-04T16:44:15.253Z,10.60
2023-02-04T16:46:19.048Z,9.10
2023-02-04T16:48:21.781Z,9.53
2023-02-04T16:50:24.614Z,9.10
2023-02-04T16:52:31.826Z,7.60
2023-02-04T16:54:34.979Z,9.67
2023-02-04T16:56:37.813Z,8.93
2023-02-04T16:58:40.602Z,8.70
2023-02-04T17:00:44.292Z,9.23
2023-02-04T17:02:47.017Z,9.60
2023-02-04T17:04:49.727Z,8.53
2023-02-04T17:06:53.064Z,9.23
2023-02-04T17:08:56.246Z,8.73
2023-02-04T17:11:18.458Z,8.63
2023-02-04T17:13:22.577Z,9.20
2023-02-04T17:15:25.262Z,9.23
2023-02-04T17:17:28.064Z,9.00
2023-02-04T17:19:31.491Z,10.03
2023-02-04T17:21:34.154Z,9.03
2023-02-04T17:23:37.034Z,10.33
2023-02-04T17:25:39.681Z,8.73
2023-02-04T17:27:42.461Z,10.33
2023-02-04T17:29:45.263Z,10.70
2023-02-04T17:31:48.255Z,10.80
2023-02-04T17:33:51.079Z,10.67
2023-02-04T17:35:53.656Z,10.10
2023-02-04T17:37:56.282Z,9.73
2023-02-04T17:39:59.068Z,8.83
2023-02-04T17:42:01.892Z,8.80
2023-02-04T17:44:04.797Z,9.63
2023-02-04T17:46:07.460Z,10.37
2023-02-04T17:48:10.178Z,8.40
2023-02-04T17:50:12.864Z,8.70
2023-02-04T17:52:15.601Z,9.73
2023-02-04T17:54:18.279Z,9.53
2023-02-04T17:56:21.684Z,8.47
2023-02-04T17:58:27.509Z,8.73
2023-02-04T18:00:31.543Z,9.17
2023-02-04T18:02:34.242Z,9.83
2023-02-04T18:04:37.271Z,9.73
2023-02-04T18:06:40.352Z,8.77
2023-02-04T18:08:42.966Z,10.43
2023-02-04T18:10:50.452Z,11.17
2023-02-04T18:12:53.155Z,11.77
2023-02-04T18:14:55.791Z,8.73
2023-02-04T18:17:00.661Z,10.20
2023-02-04T18:19:30.399Z,10.77
2023-02-04T18:21:33.424Z,9.97
2023-02-04T18:23:36.134Z,9.90
2023-02-04T18:25:38.718Z,9.67
2023-02-04T18:27:41.337Z,8.47
2023-02-04T18:29:47.223Z,10.50
2023-02-04T18:31:53.926Z,10.70
2023-02-04T18:33:57.537Z,9.47
2023-02-04T18:36:03.055Z,10.90
2023-02-04T18:38:21.391Z,10.10
2023-02-04T18:40:31.553Z,10.23
2023-02-04T18:42:36.764Z,11.60
2023-02-04T18:44:39.913Z,9.27
2023-02-04T18:46:50.612Z,10.03
2023-02-04T18:48:59.103Z,10.83
2023-02-04T18:51:02.684Z,10.10
2023-02-04T18:53:08.379Z,11.10
2023-02-04T18:55:23.457Z,11.27
2023-02-04T18:57:38.028Z,10.50
2023-02-04T18:59:41.450Z,10.33
2023-02-04T19:01:46.141Z,10.60
2023-02-04T19:03:53.081Z,11.40
2023-02-04T19:05:59.525Z,10.63
2023-02-04T19:08:05.026Z,11.07
2023-02-04T19:10:26.281Z,13.13
2023-02-04T19:12:28.891Z,9.07
2023-02-04T19:14:43.523Z,11.30
2023-02-04T19:16:47.324Z,11.30
2023-02-04T19:18:50.881Z,10.83
2023-02-04T19:20:54.378Z,11.90
2023-02-04T19:22:58.505Z,11.27
2023-02-04T19:25:22.591Z,9.83
2023-02-04T19:27:34.605Z,12.57
2023-02-04T19:29:42.410Z,12.93
2023-02-04T19:31:45.540Z,10.77
2023-02-04T19:33:50.954Z,12.90
2023-02-04T19:35:53.929Z,15.73
2023-02-04T19:38:00.655Z,11.80
2023-02-04T19:40:23.202Z,12.67
2023-02-04T19:42:33.493Z,11.00
2023-02-04T19:44:43.295Z,11.43
2023-02-04T19:46:46.023Z,12.80
2023-02-04T19:48:48.735Z,11.07
2023-02-04T19:50:53.216Z,12.00
2023-02-04T19:53:05.424Z,12.63
2023-02-04T19:55:17.554Z,13.00
2023-02-04T19:57:26.277Z,13.77
2023-02-04T19:59:33.884Z,13.43
2023-02-04T20:01:36.974Z,13.47
2023-02-04T20:03:47.613Z,14.13
2023-02-04T20:05:50.701Z,14.20
2023-02-04T20:07:53.499Z,14.70
2023-02-04T20:10:17.019Z,13.97
2023-02-04T20:12:20.350Z,13.57
2023-02-04T20:14:41.837Z,14.20
2023-02-04T20:16:52.321Z,13.70
2023-02-04T20:18:55.702Z,13.07
2023-02-04T20:20:58.349Z,14.00
2023-02-04T20:23:02.971Z,15.93
2023-02-04T20:25:31.930Z,15.60
2023-02-04T20:27:41.329Z,14.80
2023-02-04T20:29:44.129Z,15.23
2023-02-04T20:31:46.670Z,14.47
2023-02-04T20:33:52.804Z,14.57
2023-02-04T20:36:26.279Z,17.87
2023-02-04T20:38:28.923Z,16.97
2023-02-04T20:40:36.476Z,12.63
2023-02-04T20:42:53.001Z,15.17
2023-02-04T20:45:04.970Z,15.73
2023-02-04T20:49:25.004Z,16.83
2023-02-04T20:51:27.581Z,16.70
2023-02-04T20:53:52.760Z,19.47
2023-02-04T20:56:04.125Z,14.90
2023-02-04T20:58:20.066Z,19.05
2023-02-04T21:00:35.040Z,18.73
2023-02-04T21:02:39.136Z,16.33
2023-02-04T21:04:47.116Z,21.53
2023-02-04T21:07:00.990Z,18.80
2023-02-04T21:09:09.445Z,24.73
2023-02-04T21:11:12.112Z,21.17
2023-02-04T21:13:14.680Z,25.37
2023-02-04T21:15:17.401Z,39.90
2023-02-04T21:17:20.058Z,32.57
2023-02-04T21:19:25.213Z,25.07
2023-02-04T21:21:28.958Z,23.60
2023-02-04T21:23:31.684Z,20.90
2023-02-04T21:25:34.546Z,19.90
2023-02-04T21:27:37.356Z,19.10
2023-02-04T21:29:40.001Z,18.50
2023-02-04T21:31:43.597Z,18.20
2023-02-04T21:33:46.292Z,18.93
2023-02-04T21:35:49.061Z,17.80
2023-02-04T21:37:52.716Z,19.13
2023-02-04T21:39:55.424Z,17.97
2023-02-04T21:42:10.507Z,17.30
2023-02-04T21:44:13.348Z,18.50
2023-02-04T21:46:17.486Z,19.67
2023-02-04T21:48:20.105Z,16.67
2023-02-04T21:50:22.893Z,19.47
2023-02-04T21:52:25.450Z,18.67
2023-02-04T21:54:28.094Z,18.37
2023-02-04T21:56:30.656Z,18.57
2023-02-04T21:58:33.525Z,19.13
2023-02-04T22:00:37.132Z,19.50
2023-02-04T22:02:39.841Z,18.97
2023-02-04T22:04:42.485Z,21.37
2023-02-04T22:06:45.084Z,21.87
2023-02-04T22:08:47.688Z,19.30
2023-02-04T22:10:50.319Z,19.77
2023-02-04T22:12:53.229Z,20.23
2023-02-04T22:15:14.411Z,19.23
2023-02-04T22:17:17.084Z,20.60
2023-02-04T22:19:19.841Z,21.80
2023-02-04T22:21:22.450Z,21.43
2023-02-04T22:23:25.073Z,21.73
2023-02-04T22:25:27.750Z,21.53
2023-02-04T22:27:30.345Z,19.67
2023-02-04T22:29:33.757Z,21.67
2023-02-04T22:31:36.780Z,22.67
2023-02-04T22:33:39.371Z,20.47
2023-02-04T22:35:42.075Z,21.60
2023-02-04T22:37:44.842Z,21.67
2023-02-04T22:39:47.492Z,20.40
2023-02-04T22:41:50.299Z,22.00
2023-02-04T22:43:52.913Z,18.47
2023-02-04T22:45:55.560Z,21.70
2023-02-04T22:47:58.147Z,20.90
2023-02-04T22:50:00.735Z,22.73
2023-02-04T22:52:04.304Z,21.40
2023-02-04T22:54:06.939Z,23.77
2023-02-04T22:56:09.582Z,20.60
2023-02-04T22:58:12.145Z,22.00
2023-02-04T23:00:15.475Z,23.47
2023-02-04T23:02:18.266Z,25.10
2023-02-04T23:04:20.991Z,24.70
2023-02-04T23:06:23.864Z,24.17
2023-02-04T23:08:26.785Z,24.77
2023-02-04T23:10:29.387Z,24.23
2023-02-04T23:12:32.008Z,25.03
2023-02-04T23:14:34.567Z,22.43
2023-02-04T23:16:37.250Z,24.80
2023-02-04T23:18:39.936Z,22.33
2023-02-04T23:20:42.797Z,26.03
2023-02-04T23:22:45.413Z,25.90
2023-02-04T23:24:49.731Z,27.13
2023-02-04T23:26:52.438Z,24.17
2023-02-04T23:28:55.764Z,23.97
2023-02-04T23:30:58.545Z,25.77
2023-02-04T23:33:01.301Z,26.87
2023-02-04T23:35:04.035Z,21.53
2023-02-04T23:37:06.979Z,25.33
2023-02-04T23:39:09.563Z,22.70
2023-02-04T23:41:12.387Z,22.10
2023-02-04T23:43:15.434Z,22.70
2023-02-04T23:45:18.056Z,23.50
2023-02-04T23:47:20.708Z,23.17
2023-02-04T23:49:23.291Z,23.33
2023-02-04T23:51:26.078Z,25.17
2023-02-04T23:53:28.676Z,24.43
2023-02-04T23:55:33.297Z,23.80
2023-02-04T23:57:36.330Z,23.37
2023-02-04T23:59:42.421Z,23.23
